sensor_id;sensor_type;location;lat;lon;timestamp;pressure;altitude;pressure_sealevel;temperature;humidity
72110;BME280;59983;52.010;5.420;2024-01-15T00:00:11;100237.81;;;19.72;50.09
72110;BME280;59983;52.010;5.420;2024-01-15T00:02:37;100239.41;;;19.70;50.20
72110;BME280;59983;52.010;5.420;2024-01-15T00:05:04;100228.81;;;19.68;49.99
72110;BME280;59983;52.010;5.420;2024-01-15T00:07:31;100228.47;;;19.66;50.04
72110;BME280;59983;52.010;5.420;2024-01-15T00:09:57;100227.69;;;19.66;50.16
72110;BME280;59983;52.010;5.420;2024-01-15T00:12:24;100224.94;;;19.66;50.01
72110;BME280;59983;52.010;5.420;2024-01-15T00:14:50;100221.84;;;19.64;49.64
72110;BME280;59983;52.010;5.420;2024-01-15T00:17:17;100225.41;;;19.61;50.05
72110;BME280;59983;52.010;5.420;2024-01-15T00:19:43;100216.38;;;19.60;49.99
72110;BME280;59983;52.010;5.420;2024-01-15T00:22:10;100216.03;;;19.58;50.07
72110;BME280;59983;52.010;5.420;2024-01-15T00:24:36;100219.22;;;19.57;49.97
72110;BME280;59983;52.010;5.420;2024-01-15T00:27:03;100209.38;;;19.56;49.95
72110;BME280;59983;52.010;5.420;2024-01-15T00:29:29;100208.25;;;19.53;49.73
72110;BME280;59983;52.010;5.420;2024-01-15T00:31:56;100211.00;;;19.53;49.93
72110;BME280;59983;52.010;5.420;2024-01-15T00:34:23;100207.09;;;19.50;49.91
72110;BME280;59983;52.010;5.420;2024-01-15T00:36:49;100206.34;;;19.50;49.87
72110;BME280;59983;52.010;5.420;2024-01-15T00:39:16;100204.78;;;19.49;49.83
72110;BME280;59983;52.010;5.420;2024-01-15T00:41:43;100196.97;;;19.47;49.93
72110;BME280;59983;52.010;5.420;2024-01-15T00:44:09;100188.34;;;19.45;49.96
72110;BME280;59983;52.010;5.420;2024-01-15T00:46:44;100188.78;;;19.44;49.95
72110;BME280;59983;52.010;5.420;2024-01-15T00:49:15;100185.22;;;19.43;49.73
72110;BME280;59983;52.010;5.420;2024-01-15T00:51:42;100170.34;;;19.41;49.80
72110;BME280;59983;52.010;5.420;2024-01-15T00:54:09;100169.56;;;19.40;49.86
72110;BME280;59983;52.010;5.420;2024-01-15T00:56:36;100163.72;;;19.38;49.64
72110;BME280;59983;52.010;5.420;2024-01-15T00:59:03;100171.63;;;19.36;49.85
72110;BME280;59983;52.010;5.420;2024-01-15T01:01:29;100172.06;;;19.35;49.68
72110;BME280;59983;52.010;5.420;2024-01-15T01:03:56;100171.69;;;19.33;49.95
72110;BME280;59983;52.010;5.420;2024-01-15T01:06:23;100166.19;;;19.33;49.65
72110;BME280;59983;52.010;5.420;2024-01-15T01:08:49;100167.03;;;19.30;49.60
72110;BME280;59983;52.010;5.420;2024-01-15T01:11:16;100170.22;;;19.28;49.59
72110;BME280;59983;52.010;5.420;2024-01-15T01:13:42;100170.22;;;19.28;49.64
72110;BME280;59983;52.010;5.420;2024-01-15T01:16:09;100164.34;;;19.26;49.72
72110;BME280;59983;52.010;5.420;2024-01-15T01:18:36;100171.03;;;19.25;49.77
72110;BME280;59983;52.010;5.420;2024-01-15T01:21:03;100164.41;;;19.22;49.70
72110;BME280;59983;52.010;5.420;2024-01-15T01:23:30;100164.41;;;19.22;49.57
72110;BME280;59983;52.010;5.420;2024-01-15T01:25:56;100164.81;;;19.21;49.61
72110;BME280;59983;52.010;5.420;2024-01-15T01:28:23;100160.53;;;19.20;49.77
72110;BME280;59983;52.010;5.420;2024-01-15T01:30:49;100160.97;;;19.18;49.67
72110;BME280;59983;52.010;5.420;2024-01-15T01:33:16;100162.16;;;19.17;49.42
72110;BME280;59983;52.010;5.420;2024-01-15T01:35:43;100161.44;;;19.13;49.52
72110;BME280;59983;52.010;5.420;2024-01-15T01:38:11;100168.47;;;19.14;49.45
72110;BME280;59983;52.010;5.420;2024-01-15T01:40:37;100157.56;;;19.11;49.52
72110;BME280;59983;52.010;5.420;2024-01-15T01:43:05;100163.81;;;19.11;49.52
72110;BME280;59983;52.010;5.420;2024-01-15T01:45:32;100159.53;;;19.10;49.57
72110;BME280;59983;52.010;5.420;2024-01-15T01:48:00;100159.19;;;19.08;49.59
72110;BME280;59983;52.010;5.420;2024-01-15T01:50:28;100158.38;;;19.08;49.55
72110;BME280;59983;52.010;5.420;2024-01-15T01:52:56;100154.50;;;19.05;49.55
72110;BME280;59983;52.010;5.420;2024-01-15T01:55:24;100157.25;;;19.05;49.71
72110;BME280;59983;52.010;5.420;2024-01-15T01:57:53;100152.16;;;19.04;49.45
72110;BME280;59983;52.010;5.420;2024-01-15T02:00:21;100162.81;;;19.02;49.52
72110;BME280;59983;52.010;5.420;2024-01-15T02:02:47;100164.78;;;19.01;49.61
72110;BME280;59983;52.010;5.420;2024-01-15T02:05:18;100169.91;;;18.99;49.71
72110;BME280;59983;52.010;5.420;2024-01-15T02:07:45;100162.47;;;19.00;49.46
72110;BME280;59983;52.010;5.420;2024-01-15T02:10:12;100164.06;;;18.97;49.58
72110;BME280;59983;52.010;5.420;2024-01-15T02:12:39;100172.31;;;18.97;49.50
72110;BME280;59983;52.010;5.420;2024-01-15T02:15:06;100159.75;;;18.96;49.55
72110;BME280;59983;52.010;5.420;2024-01-15T02:17:32;100166.44;;;18.95;49.47
72110;BME280;59983;52.010;5.420;2024-01-15T02:19:59;100153.91;;;18.94;49.53
72110;BME280;59983;52.010;5.420;2024-01-15T02:22:26;100154.34;;;18.92;49.43
72110;BME280;59983;52.010;5.420;2024-01-15T02:24:53;100157.50;;;18.91;49.39
72110;BME280;59983;52.010;5.420;2024-01-15T02:27:20;100166.91;;;18.90;49.34
72110;BME280;59983;52.010;5.420;2024-01-15T02:29:47;100164.59;;;18.88;49.29
72110;BME280;59983;52.010;5.420;2024-01-15T02:32:14;100154.38;;;18.89;49.43
72110;BME280;59983;52.010;5.420;2024-01-15T02:34:41;100154.44;;;18.85;49.54
72110;BME280;59983;52.010;5.420;2024-01-15T02:37:07;100167.00;;;18.86;49.35
72110;BME280;59983;52.010;5.420;2024-01-15T02:39:34;100161.56;;;18.83;49.26
72110;BME280;59983;52.010;5.420;2024-01-15T02:42:00;100161.56;;;18.83;49.28
72110;BME280;59983;52.010;5.420;2024-01-15T02:44:27;100158.03;;;18.82;49.28
72110;BME280;59983;52.010;5.420;2024-01-15T02:46:53;100162.38;;;18.80;49.28
72110;BME280;59983;52.010;5.420;2024-01-15T02:49:20;100174.56;;;18.79;49.23
72110;BME280;59983;52.010;5.420;2024-01-15T02:51:47;100169.84;;;18.79;49.33
72110;BME280;59983;52.010;5.420;2024-01-15T02:54:13;100165.19;;;18.76;49.21
72110;BME280;59983;52.010;5.420;2024-01-15T02:56:40;100158.94;;;18.76;49.07
72110;BME280;59983;52.010;5.420;2024-01-15T02:59:06;100164.41;;;18.76;49.22
72110;BME280;59983;52.010;5.420;2024-01-15T03:01:33;100163.28;;;18.73;49.11
72110;BME280;59983;52.010;5.420;2024-01-15T03:04:00;100173.13;;;18.71;49.23
72110;BME280;59983;52.010;5.420;2024-01-15T03:06:26;100156.63;;;18.71;49.23
72110;BME280;59983;52.010;5.420;2024-01-15T03:08:53;100158.63;;;18.70;49.11
72110;BME280;59983;52.010;5.420;2024-01-15T03:11:20;100155.88;;;18.70;49.09
72110;BME280;59983;52.010;5.420;2024-01-15T03:13:46;100146.06;;;18.69;49.13
72110;BME280;59983;52.010;5.420;2024-01-15T03:16:13;100152.75;;;18.68;49.32
72110;BME280;59983;52.010;5.420;2024-01-15T03:18:39;100151.22;;;18.67;49.18
72110;BME280;59983;52.010;5.420;2024-01-15T03:21:06;100145.72;;;18.67;49.22
72110;BME280;59983;52.010;5.420;2024-01-15T03:23:32;100138.25;;;18.64;49.31
72110;BME280;59983;52.010;5.420;2024-01-15T03:25:59;100141.81;;;18.64;49.31
72110;BME280;59983;52.010;5.420;2024-01-15T03:28:26;100139.06;;;18.64;49.25
72110;BME280;59983;52.010;5.420;2024-01-15T03:30:53;100134.75;;;18.63;49.35
72110;BME280;59983;52.010;5.420;2024-01-15T03:33:19;100131.63;;;18.61;49.29
72110;BME280;59983;52.010;5.420;2024-01-15T03:35:46;100134.03;;;18.59;49.28
72110;BME280;59983;52.010;5.420;2024-01-15T03:38:13;100130.50;;;18.59;49.20
72110;BME280;59983;52.010;5.420;2024-01-15T03:40:39;100130.94;;;18.57;49.17
72110;BME280;59983;52.010;5.420;2024-01-15T03:43:06;100131.72;;;18.58;49.35
72110;BME280;59983;52.010;5.420;2024-01-15T03:45:33;100130.94;;;18.57;49.26
72110;BME280;59983;52.010;5.420;2024-01-15T03:47:59;100126.63;;;18.56;49.27
72110;BME280;59983;52.010;5.420;2024-01-15T03:50:26;100123.13;;;18.56;49.23
72110;BME280;59983;52.010;5.420;2024-01-15T03:52:53;100129.78;;;18.55;49.20
72110;BME280;59983;52.010;5.420;2024-01-15T03:55:19;100120.41;;;18.52;49.20
72110;BME280;59983;52.010;5.420;2024-01-15T03:57:46;100132.59;;;18.51;49.19
72110;BME280;59983;52.010;5.420;2024-01-15T04:00:14;100133.00;;;18.50;49.17
72110;BME280;59983;52.010;5.420;2024-01-15T04:02:43;100122.81;;;18.50;49.31
72110;BME280;59983;52.010;5.420;2024-01-15T04:05:10;100123.22;;;18.49;49.00
72110;BME280;59983;52.010;5.420;2024-01-15T04:07:37;100116.19;;;18.48;49.15
72110;BME280;59983;52.010;5.420;2024-01-15T04:10:03;100109.91;;;18.47;49.31
72110;BME280;59983;52.010;5.420;2024-01-15T04:12:30;100120.91;;;18.47;49.37
72110;BME280;59983;52.010;5.420;2024-01-15T04:14:57;100104.81;;;18.46;49.28
72110;BME280;59983;52.010;5.420;2024-01-15T04:17:23;100105.22;;;18.44;49.25
72110;BME280;59983;52.010;5.420;2024-01-15T04:19:50;100117.00;;;18.45;49.28
72110;BME280;59983;52.010;5.420;2024-01-15T04:22:17;100112.69;;;18.44;49.25
72110;BME280;59983;52.010;5.420;2024-01-15T04:24:43;100107.63;;;18.42;49.28
72110;BME280;59983;52.010;5.420;2024-01-15T04:27:10;100112.34;;;18.42;49.16
72110;BME280;59983;52.010;5.420;2024-01-15T04:29:40;100105.28;;;18.40;49.28
72110;BME280;59983;52.010;5.420;2024-01-15T04:32:07;100104.53;;;18.40;49.32
72110;BME280;59983;52.010;5.420;2024-01-15T04:34:34;100096.69;;;18.38;49.35
72110;BME280;59983;52.010;5.420;2024-01-15T04:37:01;100096.69;;;18.38;49.36
72110;BME280;59983;52.010;5.420;2024-01-15T04:39:27;100086.13;;;18.37;49.23
72110;BME280;59983;52.010;5.420;2024-01-15T04:41:54;100081.03;;;18.35;49.32
72110;BME280;59983;52.010;5.420;2024-01-15T04:44:20;100088.50;;;18.35;49.39
72110;BME280;59983;52.010;5.420;2024-01-15T04:46:47;100083.78;;;18.35;49.23
72110;BME280;59983;52.010;5.420;2024-01-15T04:49:14;100077.16;;;18.33;49.26
72110;BME280;59983;52.010;5.420;2024-01-15T04:51:40;100075.19;;;18.33;49.42
72110;BME280;59983;52.010;5.420;2024-01-15T04:54:07;100076.81;;;18.31;49.43
72110;BME280;59983;52.010;5.420;2024-01-15T04:56:34;100085.81;;;18.31;49.46
72110;BME280;59983;52.010;5.420;2024-01-15T04:59:00;100083.50;;;18.30;49.41
72110;BME280;59983;52.010;5.420;2024-01-15T05:01:31;100068.22;;;18.29;49.41
72110;BME280;59983;52.010;5.420;2024-01-15T05:03:59;100068.63;;;18.27;49.23
72110;BME280;59983;52.010;5.420;2024-01-15T05:06:26;100075.31;;;18.26;49.20
72110;BME280;59983;52.010;5.420;2024-01-15T05:08:53;100070.22;;;18.25;49.38
72110;BME280;59983;52.010;5.420;2024-01-15T05:11:19;100072.97;;;18.25;49.67
72110;BME280;59983;52.010;5.420;2024-01-15T05:13:46;100067.91;;;18.23;49.09
72110;BME280;59983;52.010;5.420;2024-01-15T05:16:12;100070.28;;;18.21;49.24
72110;BME280;59983;52.010;5.420;2024-01-15T05:18:39;100069.88;;;18.23;49.26
72110;BME280;59983;52.010;5.420;2024-01-15T05:21:06;100070.69;;;18.20;49.48
72110;BME280;59983;52.010;5.420;2024-01-15T05:23:32;100073.44;;;18.20;49.28
72110;BME280;59983;52.010;5.420;2024-01-15T05:25:59;100070.69;;;18.20;49.49
72110;BME280;59983;52.010;5.420;2024-01-15T05:28:25;100067.94;;;18.20;49.42
72110;BME280;59983;52.010;5.420;2024-01-15T05:30:52;100062.09;;;18.18;49.27
72110;BME280;59983;52.010;5.420;2024-01-15T05:33:19;100060.19;;;18.15;49.44
72110;BME280;59983;52.010;5.420;2024-01-15T05:35:45;100068.00;;;18.16;49.47
72110;BME280;59983;52.010;5.420;2024-01-15T05:38:12;100063.72;;;18.15;49.40
72110;BME280;59983;52.010;5.420;2024-01-15T05:40:39;100061.75;;;18.16;49.37
72110;BME280;59983;52.010;5.420;2024-01-15T05:43:05;100061.38;;;18.14;49.33
72110;BME280;59983;52.010;5.420;2024-01-15T05:45:34;100062.16;;;18.14;49.36
72110;BME280;59983;52.010;5.420;2024-01-15T05:48:01;100055.91;;;18.14;49.19
72110;BME280;59983;52.010;5.420;2024-01-15T05:50:27;100049.28;;;18.11;49.14
72110;BME280;59983;52.010;5.420;2024-01-15T05:52:54;100060.63;;;18.13;49.27
72110;BME280;59983;52.010;5.420;2024-01-15T05:55:21;100062.59;;;18.13;49.39
72110;BME280;59983;52.010;5.420;2024-01-15T05:57:47;100054.34;;;18.13;49.31
72110;BME280;59983;52.010;5.420;2024-01-15T06:00:14;100057.53;;;18.11;49.30
72110;BME280;59983;52.010;5.420;2024-01-15T06:02:41;100055.53;;;18.11;49.47
72110;BME280;59983;52.010;5.420;2024-01-15T06:05:08;100061.44;;;18.10;49.50
72110;BME280;59983;52.010;5.420;2024-01-15T06:07:34;100058.31;;;18.08;49.43
72110;BME280;59983;52.010;5.420;2024-01-15T06:10:02;100058.69;;;18.10;49.44
72110;BME280;59983;52.010;5.420;2024-01-15T06:12:31;100052.84;;;18.08;49.35
72110;BME280;59983;52.010;5.420;2024-01-15T06:14:58;100054.38;;;18.09;49.45
72110;BME280;59983;52.010;5.420;2024-01-15T06:17:25;100053.63;;;18.08;49.52
72110;BME280;59983;52.010;5.420;2024-01-15T06:19:51;100058.31;;;18.08;49.57
72110;BME280;59983;52.010;5.420;2024-01-15T06:22:18;100057.56;;;18.07;49.55
72110;BME280;59983;52.010;5.420;2024-01-15T06:24:45;100061.06;;;18.08;49.47
72110;BME280;59983;52.010;5.420;2024-01-15T06:27:11;100057.56;;;18.07;49.63
72110;BME280;59983;52.010;5.420;2024-01-15T06:29:38;100065.38;;;18.09;49.60
72110;BME280;59983;52.010;5.420;2024-01-15T06:32:05;100071.28;;;18.07;49.42
72110;BME280;59983;52.010;5.420;2024-01-15T06:34:32;100069.31;;;18.08;49.30
72110;BME280;59983;52.010;5.420;2024-01-15T06:36:58;100069.31;;;18.08;49.17
72110;BME280;59983;52.010;5.420;2024-01-15T06:39:25;100056.34;;;18.08;49.31
72110;BME280;59983;52.010;5.420;2024-01-15T06:41:51;100057.13;;;18.09;49.32
72110;BME280;59983;52.010;5.420;2024-01-15T06:44:18;100054.38;;;18.09;49.28
72110;BME280;59983;52.010;5.420;2024-01-15T06:46:47;100057.13;;;18.09;49.24
72110;BME280;59983;52.010;5.420;2024-01-15T06:49:14;100048.88;;;18.13;49.25
72110;BME280;59983;52.010;5.420;2024-01-15T06:51:40;100054.34;;;18.13;49.31
72110;BME280;59983;52.010;5.420;2024-01-15T06:54:08;100062.94;;;18.15;49.24
72110;BME280;59983;52.010;5.420;2024-01-15T06:56:35;100057.81;;;18.17;49.17
72110;BME280;59983;52.010;5.420;2024-01-15T06:59:01;100049.94;;;18.19;49.33
72110;BME280;59983;52.010;5.420;2024-01-15T07:01:29;100048.34;;;18.21;49.22
72110;BME280;59983;52.010;5.420;2024-01-15T07:03:55;100056.94;;;18.23;49.46
72110;BME280;59983;52.010;5.420;2024-01-15T07:06:22;100049.81;;;18.26;49.41
72110;BME280;59983;52.010;5.420;2024-01-15T07:08:49;100048.63;;;18.27;49.50
72110;BME280;59983;52.010;5.420;2024-01-15T07:11:16;100036.88;;;18.26;49.46
72110;BME280;59983;52.010;5.420;2024-01-15T07:13:42;100025.84;;;18.30;49.60
72110;BME280;59983;52.010;5.420;2024-01-15T07:16:09;100029.38;;;18.30;49.44
72110;BME280;59983;52.010;5.420;2024-01-15T07:18:36;100036.34;;;18.35;49.55
72110;BME280;59983;52.010;5.420;2024-01-15T07:21:03;100038.31;;;18.34;49.55
72110;BME280;59983;52.010;5.420;2024-01-15T07:23:33;100038.66;;;18.36;49.47
72110;BME280;59983;52.010;5.420;2024-01-15T07:26:00;100064.09;;;18.40;49.61
72110;BME280;59983;52.010;5.420;2024-01-15T07:28:28;100069.19;;;18.42;49.67
72110;BME280;59983;52.010;5.420;2024-01-15T07:30:55;100082.47;;;18.44;49.59
72110;BME280;59983;52.010;5.420;2024-01-15T07:33:22;100069.09;;;18.46;49.42
72110;BME280;59983;52.010;5.420;2024-01-15T07:35:49;100078.06;;;18.50;49.44
72110;BME280;59983;52.010;5.420;2024-01-15T07:38:15;100070.97;;;18.52;49.37
72110;BME280;59983;52.010;5.420;2024-01-15T07:40:42;100073.28;;;18.54;49.50
72110;BME280;59983;52.010;5.420;2024-01-15T07:43:08;100068.56;;;18.54;49.39
72110;BME280;59983;52.010;5.420;2024-01-15T07:45:35;100066.22;;;18.56;49.36
72110;BME280;59983;52.010;5.420;2024-01-15T07:48:01;100062.25;;;18.57;49.34
72110;BME280;59983;52.010;5.420;2024-01-15T07:50:29;100065.78;;;18.58;49.40
72110;BME280;59983;52.010;5.420;2024-01-15T07:52:55;100073.59;;;18.59;49.24
72110;BME280;59983;52.010;5.420;2024-01-15T07:55:22;100065.72;;;18.61;49.10
72110;BME280;59983;52.010;5.420;2024-01-15T07:57:49;100065.72;;;18.61;49.18
72110;BME280;59983;52.010;5.420;2024-01-15T08:00:28;100066.50;;;18.62;49.31
72110;BME280;59983;52.010;5.420;2024-01-15T08:02:54;100075.88;;;18.64;49.30
72110;BME280;59983;52.010;5.420;2024-01-15T08:05:21;100081.69;;;18.70;49.40
72110;BME280;59983;52.010;5.420;2024-01-15T08:07:47;100085.94;;;18.75;49.37
72110;BME280;59983;52.010;5.420;2024-01-15T08:10:14;100077.97;;;18.80;49.18
72110;BME280;59983;52.010;5.420;2024-01-15T08:12:40;100060.59;;;18.87;49.63
72110;BME280;59983;52.010;5.420;2024-01-15T08:15:07;100058.50;;;18.94;49.79
72110;BME280;59983;52.010;5.420;2024-01-15T08:17:34;100058.00;;;19.00;49.75
72110;BME280;59983;52.010;5.420;2024-01-15T08:20:01;100051.59;;;19.06;50.04
72110;BME280;59983;52.010;5.420;2024-01-15T08:22:28;100047.16;;;19.12;49.86
72110;BME280;59983;52.010;5.420;2024-01-15T08:24:57;100054.13;;;19.17;49.99
72110;BME280;59983;52.010;5.420;2024-01-15T08:27:24;100056.31;;;19.25;50.12
72110;BME280;59983;52.010;5.420;2024-01-15T08:29:50;100049.56;;;19.30;49.99
72110;BME280;59983;52.010;5.420;2024-01-15T08:32:17;100053.38;;;19.36;49.76
72110;BME280;59983;52.010;5.420;2024-01-15T08:34:43;100055.25;;;19.39;49.58
72110;BME280;59983;52.010;5.420;2024-01-15T08:37:10;100057.88;;;19.46;49.73
72110;BME280;59983;52.010;5.420;2024-01-15T08:39:37;100064.06;;;19.50;49.69
72110;BME280;59983;52.010;5.420;2024-01-15T08:42:05;100064.78;;;19.55;49.56
72110;BME280;59983;52.010;5.420;2024-01-15T08:44:32;100064.28;;;19.60;49.51
72110;BME280;59983;52.010;5.420;2024-01-15T08:46:58;100065.78;;;19.64;49.47
72110;BME280;59983;52.010;5.420;2024-01-15T08:49:25;100076.28;;;19.69;49.29
72110;BME280;59983;52.010;5.420;2024-01-15T08:51:51;100080.16;;;19.72;49.19
72110;BME280;59983;52.010;5.420;2024-01-15T08:54:18;100081.28;;;19.74;49.19
72110;BME280;59983;52.010;5.420;2024-01-15T08:56:45;100075.78;;;19.74;48.69
72110;BME280;59983;52.010;5.420;2024-01-15T08:59:11;100083.69;;;19.72;48.78
72110;BME280;59983;52.010;5.420;2024-01-15T09:01:38;100080.94;;;19.72;48.73
72110;BME280;59983;52.010;5.420;2024-01-15T09:04:05;100076.66;;;19.71;48.75
72110;BME280;59983;52.010;5.420;2024-01-15T09:06:32;100075.44;;;19.72;49.11
72110;BME280;59983;52.010;5.420;2024-01-15T09:08:59;100078.63;;;19.71;48.93
72110;BME280;59983;52.010;5.420;2024-01-15T09:11:26;100082.91;;;19.72;49.03
72110;BME280;59983;52.010;5.420;2024-01-15T09:13:53;100084.13;;;19.71;48.91
72110;BME280;59983;52.010;5.420;2024-01-15T09:16:19;100087.66;;;19.71;48.99
72110;BME280;59983;52.010;5.420;2024-01-15T09:18:46;100103.38;;;19.71;49.00
72110;BME280;59983;52.010;5.420;2024-01-15T09:21:13;100120.66;;;19.71;48.96
72110;BME280;59983;52.010;5.420;2024-01-15T09:23:40;100128.50;;;19.73;49.21
72110;BME280;59983;52.010;5.420;2024-01-15T09:26:08;100115.94;;;19.72;49.60
72110;BME280;59983;52.010;5.420;2024-01-15T09:28:34;100106.91;;;19.71;49.81
72110;BME280;59983;52.010;5.420;2024-01-15T09:31:01;100097.44;;;19.72;49.53
72110;BME280;59983;52.010;5.420;2024-01-15T09:33:28;100094.75;;;19.69;49.77
72110;BME280;59983;52.010;5.420;2024-01-15T09:35:54;100094.00;;;19.68;49.76
72110;BME280;59983;52.010;5.420;2024-01-15T09:38:21;100088.13;;;19.66;49.82
72110;BME280;59983;52.010;5.420;2024-01-15T09:40:47;100084.97;;;19.68;49.69
72110;BME280;59983;52.010;5.420;2024-01-15T09:43:16;100089.25;;;19.69;49.49
72110;BME280;59983;52.010;5.420;2024-01-15T09:45:43;100093.22;;;19.68;49.43
72110;BME280;59983;52.010;5.420;2024-01-15T09:48:10;100101.03;;;19.69;49.31
72110;BME280;59983;52.010;5.420;2024-01-15T09:50:37;100099.50;;;19.68;49.23
72110;BME280;59983;52.010;5.420;2024-01-15T09:53:05;100099.91;;;19.67;49.23
72110;BME280;59983;52.010;5.420;2024-01-15T09:55:32;100106.63;;;19.66;49.25
72110;BME280;59983;52.010;5.420;2024-01-15T09:58:00;100093.63;;;19.66;49.18
72110;BME280;59983;52.010;5.420;2024-01-15T10:00:29;100089.34;;;19.65;48.99
72110;BME280;59983;52.010;5.420;2024-01-15T10:02:56;100095.28;;;19.64;49.08
72110;BME280;59983;52.010;5.420;2024-01-15T10:05:23;100090.19;;;19.62;49.01
72110;BME280;59983;52.010;5.420;2024-01-15T10:07:51;100094.94;;;19.62;49.00
72110;BME280;59983;52.010;5.420;2024-01-15T10:10:19;100092.19;;;19.62;48.79
72110;BME280;59983;52.010;5.420;2024-01-15T10:12:49;100087.84;;;19.61;48.69
72110;BME280;59983;52.010;5.420;2024-01-15T10:15:16;100088.63;;;19.61;48.83
72110;BME280;59983;52.010;5.420;2024-01-15T10:17:43;100082.78;;;19.59;48.67
72110;BME280;59983;52.010;5.420;2024-01-15T10:20:11;100087.84;;;19.61;48.60
72110;BME280;59983;52.010;5.420;2024-01-15T10:22:41;100090.19;;;19.62;48.56
72110;BME280;59983;52.010;5.420;2024-01-15T10:25:14;100092.53;;;19.64;48.49
72110;BME280;59983;52.010;5.420;2024-01-15T10:27:41;100089.34;;;19.65;48.47
72110;BME280;59983;52.010;5.420;2024-01-15T10:30:09;100089.00;;;19.63;48.54
72110;BME280;59983;52.010;5.420;2024-01-15T10:32:36;100081.50;;;19.64;48.58
72110;BME280;59983;52.010;5.420;2024-01-15T10:35:03;100079.09;;;19.66;48.51
72110;BME280;59983;52.010;5.420;2024-01-15T10:37:33;100081.44;;;19.67;48.84
72110;BME280;59983;52.010;5.420;2024-01-15T10:40:04;100070.84;;;19.66;48.78
72110;BME280;59983;52.010;5.420;2024-01-15T10:42:31;100075.50;;;19.69;48.91
72110;BME280;59983;52.010;5.420;2024-01-15T10:44:58;100077.47;;;19.68;48.75
72110;BME280;59983;52.010;5.420;2024-01-15T10:47:26;100079.78;;;19.70;48.65
72110;BME280;59983;52.010;5.420;2024-01-15T10:49:53;100079.78;;;19.70;48.65
72110;BME280;59983;52.010;5.420;2024-01-15T10:52:20;100086.88;;;19.71;48.81
72110;BME280;59983;52.010;5.420;2024-01-15T10:54:48;100083.75;;;19.69;49.00
72110;BME280;59983;52.010;5.420;2024-01-15T10:57:16;100096.75;;;19.68;49.11
72110;BME280;59983;52.010;5.420;2024-01-15T10:59:42;100092.88;;;19.66;49.05
72110;BME280;59983;52.010;5.420;2024-01-15T11:02:09;100095.63;;;19.66;48.92
72110;BME280;59983;52.010;5.420;2024-01-15T11:04:36;100100.78;;;19.64;49.03
72110;BME280;59983;52.010;5.420;2024-01-15T11:07:05;100094.84;;;19.65;49.24
72110;BME280;59983;52.010;5.420;2024-01-15T11:09:31;100101.97;;;19.63;49.12
72110;BME280;59983;52.010;5.420;2024-01-15T11:14:41;100098.47;;;19.62;49.11
72110;BME280;59983;52.010;5.420;2024-01-15T11:17:11;100107.53;;;19.59;49.30
72110;BME280;59983;52.010;5.420;2024-01-15T11:19:43;100101.25;;;19.59;49.31
72110;BME280;59983;52.010;5.420;2024-01-15T11:25:01;100117.44;;;19.57;48.91
72110;BME280;59983;52.010;5.420;2024-01-15T11:27:52;100116.28;;;19.54;49.20
72110;BME280;59983;52.010;5.420;2024-01-15T11:30:24;100114.72;;;19.53;49.49
72110;BME280;59983;52.010;5.420;2024-01-15T11:32:52;100124.16;;;19.52;49.36
72110;BME280;59983;52.010;5.420;2024-01-15T11:35:19;100123.81;;;19.50;49.45
72110;BME280;59983;52.010;5.420;2024-01-15T11:40:20;100123.88;;;19.46;49.26
72110;BME280;59983;52.010;5.420;2024-01-15T11:42:48;100125.88;;;19.46;49.23
72110;BME280;59983;52.010;5.420;2024-01-15T11:45:19;100118.03;;;19.44;49.17
72110;BME280;59983;52.010;5.420;2024-01-15T11:50:34;100120.84;;;19.41;48.90
72110;BME280;59983;52.010;5.420;2024-01-15T11:53:03;100123.25;;;19.39;48.99
72110;BME280;59983;52.010;5.420;2024-01-15T11:55:39;100128.41;;;19.37;48.95
72110;BME280;59983;52.010;5.420;2024-01-15T11:58:08;100135.88;;;19.36;48.87
72110;BME280;59983;52.010;5.420;2024-01-15T12:00:43;100129.22;;;19.34;48.99
72110;BME280;59983;52.010;5.420;2024-01-15T12:03:10;100126.91;;;19.32;49.08
72110;BME280;59983;52.010;5.420;2024-01-15T12:05:38;100135.16;;;19.32;48.91
72110;BME280;59983;52.010;5.420;2024-01-15T12:08:05;100124.22;;;19.29;48.94
72110;BME280;59983;52.010;5.420;2024-01-15T12:10:38;100130.16;;;19.27;48.96
72110;BME280;59983;52.010;5.420;2024-01-15T12:13:13;100133.69;;;19.28;49.02
72110;BME280;59983;52.010;5.420;2024-01-15T12:15:44;100133.69;;;19.28;49.09
72110;BME280;59983;52.010;5.420;2024-01-15T12:18:14;100140.00;;;19.24;48.50
72110;BME280;59983;52.010;5.420;2024-01-15T12:20:42;100140.09;;;19.21;48.41
72110;BME280;59983;52.010;5.420;2024-01-15T12:23:09;100138.97;;;19.18;48.55
72110;BME280;59983;52.010;5.420;2024-01-15T12:25:37;100137.75;;;19.19;48.54
72110;BME280;59983;52.010;5.420;2024-01-15T12:28:04;100142.09;;;19.17;48.54
72110;BME280;59983;52.010;5.420;2024-01-15T12:30:33;100133.09;;;19.16;48.63
72110;BME280;59983;52.010;5.420;2024-01-15T12:33:02;100145.28;;;19.15;48.63
72110;BME280;59983;52.010;5.420;2024-01-15T12:35:31;100142.19;;;19.13;48.58
72110;BME280;59983;52.010;5.420;2024-01-15T12:37:59;100143.81;;;19.11;48.54
72110;BME280;59983;52.010;5.420;2024-01-15T12:40:26;100145.00;;;19.10;48.61
72110;BME280;59983;52.010;5.420;2024-01-15T12:42:53;100143.03;;;19.10;48.63
72110;BME280;59983;52.010;5.420;2024-01-15T12:45:20;100143.84;;;19.07;48.78
72110;BME280;59983;52.010;5.420;2024-01-15T12:47:47;100154.06;;;19.07;48.75
72110;BME280;59983;52.010;5.420;2024-01-15T12:50:14;100152.16;;;19.04;48.77
72110;BME280;59983;52.010;5.420;2024-01-15T12:52:46;100161.63;;;19.03;48.78
72110;BME280;59983;52.010;5.420;2024-01-15T12:55:13;100173.03;;;19.01;48.91
72110;BME280;59983;52.010;5.420;2024-01-15T12:57:41;100177.38;;;18.99;48.66
72110;BME280;59983;52.010;5.420;2024-01-15T13:00:08;100180.53;;;18.97;48.77